SVA661 OERK-OPKC
Flight info
| Callsign | SVA661 |
|---|---|
| Flight time | N/A |
| Altitude | 35000 |
| Route | RESAL T533 RAPMA DCT KUVSO DCT KATIT DCT MIDGU M440 TULBU G652 SODEB G216 LAKIV |
| Aircraft | A306/H-SDE3FGHIRWY/LB1 |
Departure
| Time | N/A |
|---|---|
| Airport | King Khalid International Airport (OERK) |
Arrival
| Time | 2026-04-30 18:29 |
|---|---|
| Airport | Jinnah International Airport (OPKC) |
| Time | Latitude | Longitude | Altitude | Speed | Heading |
|---|---|---|---|---|---|
| 2026-04-30 17:39 | 24.09208 | 61.42885 | 34834 ft | 484 kts | 81° |
| 2026-04-30 17:42 | 24.14527 | 61.79317 | 34858 ft | 484 kts | 81° |
| 2026-04-30 17:43 | 24.17002 | 61.97546 | 34856 ft | 484 kts | 82° |
| 2026-04-30 17:44 | 24.19948 | 62.19351 | 34860 ft | 484 kts | 82° |
| 2026-04-30 17:47 | 24.24314 | 62.52132 | 34858 ft | 484 kts | 82° |
| 2026-04-30 17:48 | 24.27663 | 62.77648 | 34859 ft | 484 kts | 82° |
| 2026-04-30 17:50 | 24.31430 | 63.06775 | 34858 ft | 481 kts | 82° |
| 2026-04-30 17:52 | 24.34193 | 63.28429 | 34815 ft | 479 kts | 82° |
| 2026-04-30 17:54 | 24.38288 | 63.60992 | 34757 ft | 479 kts | 82° |
| 2026-04-30 17:56 | 24.41862 | 63.89878 | 34750 ft | 479 kts | 82° |
| 2026-04-30 17:58 | 24.44504 | 64.11542 | 34748 ft | 479 kts | 82° |
| 2026-04-30 18:00 | 24.47983 | 64.40477 | 34751 ft | 479 kts | 82° |
| 2026-04-30 18:01 | 24.50130 | 64.58581 | 34749 ft | 479 kts | 82° |
| 2026-04-30 18:02 | 24.52685 | 64.80347 | 34747 ft | 479 kts | 82° |
| 2026-04-30 18:04 | 24.54402 | 65.02131 | 34752 ft | 477 kts | 85° |
| 2026-04-30 18:06 | 24.56652 | 65.31139 | 34750 ft | 481 kts | 85° |
| 2026-04-30 18:08 | 24.58593 | 65.56825 | 34358 ft | 481 kts | 85° |
| 2026-04-30 18:09 | 24.59693 | 65.71640 | 31254 ft | 488 kts | 84° |
| 2026-04-30 18:10 | 24.60778 | 65.86452 | 28735 ft | 484 kts | 84° |
| 2026-04-30 18:11 | 24.61833 | 66.01059 | 26773 ft | 474 kts | 84° |
| 2026-04-30 18:11 | 24.62600 | 66.11813 | 25321 ft | 461 kts | 83° |
| 2026-04-30 18:12 | 24.63341 | 66.22295 | 23631 ft | 454 kts | 83° |
| 2026-04-30 18:13 | 24.63814 | 66.29060 | 23048 ft | 438 kts | 83° |
| 2026-04-30 18:13 | 24.64503 | 66.38946 | 21539 ft | 430 kts | 83° |
| 2026-04-30 18:14 | 24.64951 | 66.45440 | 20438 ft | 419 kts | 83° |
| 2026-04-30 18:15 | 24.65592 | 66.54816 | 18077 ft | 405 kts | 83° |
| 2026-04-30 18:15 | 24.66149 | 66.63757 | 16379 ft | 376 kts | 83° |
| 2026-04-30 18:16 | 24.66530 | 66.69426 | 15370 ft | 369 kts | 84° |
| 2026-04-30 18:16 | 24.66907 | 66.75021 | 14413 ft | 365 kts | 84° |
| 2026-04-30 18:17 | 24.67091 | 66.77770 | 13936 ft | 362 kts | 84° |
| 2026-04-30 18:17 | 24.67276 | 66.80539 | 13454 ft | 360 kts | 84° |
| 2026-04-30 18:17 | 24.67637 | 66.85966 | 12511 ft | 355 kts | 84° |
| 2026-04-30 18:18 | 24.67814 | 66.88641 | 12049 ft | 352 kts | 84° |
| 2026-04-30 18:18 | 24.67990 | 66.91313 | 11737 ft | 344 kts | 84° |
| 2026-04-30 18:18 | 24.68160 | 66.93900 | 11476 ft | 336 kts | 84° |
| 2026-04-30 18:18 | 24.68326 | 66.96430 | 11122 ft | 331 kts | 84° |
| 2026-04-30 18:19 | 24.68491 | 66.98946 | 10701 ft | 329 kts | 84° |
| 2026-04-30 18:19 | 24.68657 | 67.01470 | 10209 ft | 329 kts | 84° |
| 2026-04-30 18:19 | 24.68878 | 67.03946 | 9780 ft | 326 kts | 75° |
| 2026-04-30 18:19 | 24.69686 | 67.06247 | 9430 ft | 325 kts | 62° |
| 2026-04-30 18:20 | 24.70788 | 67.08435 | 9053 ft | 325 kts | 58° |
| 2026-04-30 18:20 | 24.71954 | 67.10577 | 8674 ft | 324 kts | 57° |
| 2026-04-30 18:20 | 24.73104 | 67.12671 | 8302 ft | 323 kts | 57° |
| 2026-04-30 18:20 | 24.74262 | 67.14790 | 7925 ft | 322 kts | 57° |
| 2026-04-30 18:21 | 24.75409 | 67.16903 | 7590 ft | 321 kts | 57° |
| 2026-04-30 18:21 | 24.76563 | 67.19033 | 7261 ft | 321 kts | 58° |
| 2026-04-30 18:21 | 24.77700 | 67.21137 | 6936 ft | 320 kts | 58° |
| 2026-04-30 18:21 | 24.78826 | 67.23221 | 6616 ft | 319 kts | 58° |
| 2026-04-30 18:22 | 24.79956 | 67.25314 | 6336 ft | 313 kts | 58° |
| 2026-04-30 18:22 | 24.82138 | 67.29361 | 5766 ft | 297 kts | 58° |
| 2026-04-30 18:22 | 24.83162 | 67.31262 | 5489 ft | 288 kts | 58° |
| 2026-04-30 18:23 | 24.84170 | 67.33132 | 5209 ft | 280 kts | 58° |
| 2026-04-30 18:23 | 24.85153 | 67.34958 | 4927 ft | 272 kts | 58° |
| 2026-04-30 18:23 | 24.86100 | 67.36716 | 4649 ft | 264 kts | 58° |
| 2026-04-30 18:23 | 24.87192 | 67.38299 | 4374 ft | 256 kts | 33° |
| 2026-04-30 18:24 | 24.90548 | 67.38843 | 3895 ft | 249 kts | 350° |
| 2026-04-30 18:24 | 24.92220 | 67.38524 | 3625 ft | 245 kts | 346° |
| 2026-04-30 18:24 | 24.93705 | 67.37756 | 3358 ft | 231 kts | 312° |
| 2026-04-30 18:25 | 24.94378 | 67.36260 | 3125 ft | 216 kts | 276° |
| 2026-04-30 18:25 | 24.94355 | 67.33168 | 3028 ft | 191 kts | 271° |
| 2026-04-30 18:25 | 24.94296 | 67.31701 | 2759 ft | 189 kts | 263° |
| 2026-04-30 18:26 | 24.93773 | 67.28938 | 2249 ft | 177 kts | 255° |
| 2026-04-30 18:26 | 24.93464 | 67.27688 | 2010 ft | 161 kts | 255° |
| 2026-04-30 18:26 | 24.93180 | 67.26563 | 1825 ft | 143 kts | 254° |
| 2026-04-30 18:27 | 24.92656 | 67.24491 | 1424 ft | 135 kts | 254° |
| 2026-04-30 18:27 | 24.92409 | 67.23511 | 1247 ft | 134 kts | 254° |
| 2026-04-30 18:28 | 24.91906 | 67.21524 | 886 ft | 133 kts | 254° |
| 2026-04-30 18:28 | 24.91657 | 67.20538 | 707 ft | 132 kts | 253° |
| 2026-04-30 18:28 | 24.91164 | 67.18584 | 353 ft | 132 kts | 253° |
| 2026-04-30 18:29 | 24.90912 | 67.17614 | 169 ft | 131 kts | 253° |
| 2026-04-30 18:29 | 24.90442 | 67.15781 | 113 ft | 21 kts | 246° |
| 2026-04-30 18:30 | 24.90339 | 67.15760 | 113 ft | 8 kts | 166° |
| 2026-04-30 18:30 | 24.90244 | 67.15829 | 113 ft | 9 kts | 87° |
| 2026-04-30 18:31 | 24.90261 | 67.15903 | 113 ft | 11 kts | 74° |
| 2026-04-30 18:31 | 24.90325 | 67.16156 | 113 ft | 22 kts | 75° |
| 2026-04-30 18:32 | 24.90291 | 67.16363 | 113 ft | 13 kts | 156° |
| 2026-04-30 18:32 | 24.90229 | 67.16440 | 113 ft | 13 kts | 124° |
| 2026-04-30 18:32 | 24.90200 | 67.16490 | 113 ft | 0 kts | 118° |
| 2026-04-30 18:33 | 24.90197 | 67.16495 | 113 ft | 0 kts | 118° |